createdAt,value
2022-08-26T00:01:53.739Z,6.30
2022-08-26T00:04:23.563Z,8.07
2022-08-26T00:06:51.382Z,6.20
2022-08-26T00:09:19.108Z,7.00
2022-08-26T00:11:47.206Z,8.50
2022-08-26T00:14:16.259Z,7.43
2022-08-26T00:16:47.507Z,7.60
2022-08-26T00:19:18.308Z,6.67
2022-08-26T00:21:48.748Z,7.10
2022-08-26T00:24:18.640Z,7.87
2022-08-26T00:26:46.505Z,6.80
2022-08-26T00:29:14.776Z,6.90
2022-08-26T00:31:42.506Z,7.43
2022-08-26T00:34:12.845Z,6.50
2022-08-26T00:36:41.357Z,7.33
2022-08-26T00:39:09.719Z,6.97
2022-08-26T00:41:40.821Z,7.20
2022-08-26T00:44:10.344Z,7.00
2022-08-26T00:46:46.620Z,7.23
2022-08-26T00:49:17.709Z,7.30
2022-08-26T00:51:52.752Z,7.00
2022-08-26T00:54:23.241Z,7.00
2022-08-26T00:57:03.958Z,7.17
2022-08-26T00:59:33.173Z,6.93
2022-08-26T01:02:02.836Z,6.53
2022-08-26T01:04:31.892Z,8.23
2022-08-26T01:06:59.516Z,7.00
2022-08-26T01:09:27.025Z,6.80
2022-08-26T01:11:56.842Z,7.60
2022-08-26T01:14:26.029Z,7.27
2022-08-26T01:16:53.455Z,7.43
2022-08-26T01:19:29.238Z,7.00
2022-08-26T01:22:08.723Z,7.30
2022-08-26T01:24:37.173Z,8.23
2022-08-26T01:27:07.502Z,6.97
2022-08-26T01:29:35.708Z,8.50
2022-08-26T01:32:05.141Z,7.80
2022-08-26T01:34:36.121Z,7.47
2022-08-26T01:37:18.953Z,6.83
2022-08-26T01:39:50.141Z,7.63
2022-08-26T01:42:19.067Z,7.53
2022-08-26T01:44:52.898Z,7.47
2022-08-26T01:47:21.870Z,8.10
2022-08-26T01:49:51.344Z,7.63
2022-08-26T01:52:27.624Z,7.17
2022-08-26T01:54:56.954Z,6.63
2022-08-26T01:57:25.260Z,8.10
2022-08-26T01:59:54.826Z,6.67
2022-08-26T02:02:22.765Z,7.93
2022-08-26T02:04:55.631Z,7.93
2022-08-26T02:07:26.633Z,7.23
2022-08-26T02:09:54.612Z,7.50
2022-08-26T02:12:22.612Z,8.13
2022-08-26T02:14:55.801Z,7.83
2022-08-26T02:17:26.645Z,8.47
2022-08-26T02:19:54.275Z,7.50
2022-08-26T02:22:24.720Z,8.03
2022-08-26T02:24:57.717Z,7.47
2022-08-26T02:27:35.633Z,7.70
2022-08-26T02:30:12.374Z,7.70
2022-08-26T02:32:41.371Z,8.37
2022-08-26T02:35:11.193Z,6.87
2022-08-26T02:37:38.695Z,7.40
2022-08-26T02:40:11.362Z,7.53
2022-08-26T02:42:38.826Z,7.83
2022-08-26T02:45:07.397Z,7.90
2022-08-26T02:47:35.234Z,7.47
2022-08-26T02:50:02.687Z,7.90
2022-08-26T02:52:30.045Z,7.27
2022-08-26T02:54:57.429Z,7.23
2022-08-26T02:57:24.994Z,6.80
2022-08-26T02:59:52.410Z,8.70
2022-08-26T03:02:19.902Z,9.33
2022-08-26T03:04:57.770Z,8.70
2022-08-26T03:07:30.060Z,9.37
2022-08-26T03:09:58.039Z,8.90
2022-08-26T03:12:25.621Z,9.30
2022-08-26T03:14:53.595Z,7.90
2022-08-26T03:17:21.116Z,8.27
2022-08-26T03:19:52.890Z,9.10
2022-08-26T03:22:24.828Z,8.07
2022-08-26T03:24:52.367Z,7.70
2022-08-26T03:27:19.833Z,8.47
2022-08-26T03:30:05.893Z,7.40
2022-08-26T03:32:33.317Z,8.07
2022-08-26T03:35:00.740Z,6.60
2022-08-26T03:37:28.382Z,8.00
2022-08-26T03:39:55.768Z,7.30
2022-08-26T03:42:23.608Z,8.57
2022-08-26T03:44:51.555Z,8.60
2022-08-26T03:47:18.977Z,9.63
2022-08-26T03:49:46.405Z,7.93
2022-08-26T03:52:13.834Z,8.67
2022-08-26T03:54:41.765Z,9.10
2022-08-26T03:57:10.905Z,7.27
2022-08-26T03:59:38.312Z,9.00
2022-08-26T04:02:11.742Z,8.43
2022-08-26T04:04:39.762Z,8.37
2022-08-26T04:07:07.655Z,7.37
2022-08-26T04:09:35.621Z,7.63
2022-08-26T04:12:03.954Z,7.37
2022-08-26T04:14:32.484Z,8.37
2022-08-26T04:16:59.878Z,7.67
2022-08-26T04:19:27.432Z,9.13
2022-08-26T04:21:55.218Z,8.03
2022-08-26T04:24:24.509Z,9.40
2022-08-26T04:26:51.934Z,8.50
2022-08-26T04:29:23.945Z,8.80
2022-08-26T04:31:55.494Z,8.03
2022-08-26T04:34:24.566Z,8.10
2022-08-26T04:36:55.992Z,8.57
2022-08-26T04:39:23.417Z,9.07
2022-08-26T04:41:55.086Z,7.83
2022-08-26T04:44:22.989Z,8.97
2022-08-26T04:46:51.554Z,8.17
2022-08-26T04:49:19.389Z,7.80
2022-08-26T04:51:48.801Z,8.60
2022-08-26T04:54:16.601Z,7.87
2022-08-26T04:56:47.371Z,8.67
2022-08-26T04:59:18.211Z,9.30
2022-08-26T05:01:51.222Z,7.80
2022-08-26T05:04:20.285Z,8.17
2022-08-26T05:06:50.203Z,9.47
2022-08-26T05:09:18.616Z,9.03
2022-08-26T05:11:48.471Z,9.20
2022-08-26T05:14:20.609Z,8.17
2022-08-26T05:16:48.092Z,8.53
2022-08-26T05:19:18.817Z,10.07
2022-08-26T05:21:47.736Z,8.03
2022-08-26T05:24:15.350Z,8.27
2022-08-26T05:26:44.804Z,7.97
2022-08-26T05:29:12.890Z,8.27
2022-08-26T05:31:40.383Z,7.97
2022-08-26T05:34:08.393Z,7.90
2022-08-26T05:36:36.996Z,7.80
2022-08-26T05:39:06.654Z,8.27
2022-08-26T05:41:38.283Z,7.63
2022-08-26T05:44:10.144Z,7.53
2022-08-26T05:46:38.257Z,7.40
2022-08-26T05:49:06.627Z,8.43
2022-08-26T05:51:41.398Z,7.10
2022-08-26T05:54:10.220Z,8.83
2022-08-26T05:56:38.826Z,7.40
2022-08-26T05:59:07.086Z,7.80
2022-08-26T06:01:43.141Z,7.30
2022-08-26T06:04:11.323Z,7.43
2022-08-26T06:06:41.625Z,8.20
2022-08-26T06:09:11.136Z,7.97
2022-08-26T06:11:38.944Z,7.37
2022-08-26T06:14:07.996Z,7.40
2022-08-26T06:16:41.244Z,7.00
2022-08-26T06:19:10.273Z,7.13
2022-08-26T06:21:41.567Z,7.70
2022-08-26T06:24:30.631Z,6.77
2022-08-26T06:27:04.286Z,8.60
2022-08-26T06:29:34.178Z,8.80
2022-08-26T06:32:02.679Z,7.37
2022-08-26T06:34:30.664Z,9.00
2022-08-26T06:37:01.420Z,8.60
2022-08-26T06:39:30.600Z,7.80
2022-08-26T06:41:59.794Z,8.23
2022-08-26T06:44:27.692Z,9.20
2022-08-26T06:46:55.182Z,9.70
2022-08-26T06:49:27.103Z,10.30
2022-08-26T06:51:58.387Z,8.20
2022-08-26T06:54:26.707Z,8.63
2022-08-26T06:56:56.836Z,9.50
2022-08-26T06:59:25.166Z,9.50
2022-08-26T07:01:52.576Z,8.70
2022-08-26T07:04:23.236Z,9.33
2022-08-26T07:06:53.378Z,8.33
2022-08-26T07:09:23.123Z,8.90
2022-08-26T07:11:51.366Z,8.07
2022-08-26T07:14:21.654Z,8.83
2022-08-26T07:16:50.688Z,9.20
2022-08-26T07:19:29.093Z,7.97
2022-08-26T07:22:03.888Z,7.90
2022-08-26T07:24:35.134Z,7.23
2022-08-26T07:27:05.634Z,8.43
2022-08-26T07:29:34.398Z,7.10
2022-08-26T07:32:02.559Z,8.67
2022-08-26T07:34:32.126Z,7.90
2022-08-26T07:37:00.742Z,7.80
2022-08-26T07:39:31.584Z,7.30
2022-08-26T07:42:01.511Z,6.83
2022-08-26T07:44:35.116Z,6.80
2022-08-26T07:47:02.536Z,8.23
2022-08-26T07:49:31.204Z,9.27
2022-08-26T07:51:58.281Z,7.13
2022-08-26T07:54:26.809Z,7.63
2022-08-26T07:56:55.925Z,7.93
2022-08-26T07:59:24.371Z,8.27
2022-08-26T08:01:51.864Z,7.60
2022-08-26T08:04:26.187Z,7.07
2022-08-26T08:06:55.008Z,7.90
2022-08-26T08:09:23.191Z,7.90
2022-08-26T08:11:52.574Z,6.43
2022-08-26T08:14:22.060Z,7.53
2022-08-26T08:16:51.145Z,6.97
2022-08-26T08:19:23.770Z,7.70
2022-08-26T08:21:51.190Z,6.90
2022-08-26T08:24:18.630Z,8.57
2022-08-26T08:26:46.047Z,8.60
2022-08-26T08:29:13.650Z,7.00
2022-08-26T08:31:57.983Z,7.20
2022-08-26T08:34:28.331Z,6.87
2022-08-26T08:36:57.225Z,6.67
2022-08-26T08:39:26.265Z,7.30
2022-08-26T08:42:30.011Z,7.50
2022-08-26T08:45:04.379Z,8.40
2022-08-26T08:47:44.185Z,7.03
2022-08-26T08:50:22.206Z,7.07
2022-08-26T08:53:12.621Z,7.87
2022-08-26T08:55:59.716Z,6.97
2022-08-26T08:59:22.503Z,8.20
2022-08-26T09:01:54.002Z,7.30
2022-08-26T09:04:21.559Z,6.63
2022-08-26T09:06:50.207Z,7.47
2022-08-26T09:09:43.638Z,6.50
2022-08-26T09:12:29.211Z,7.07
2022-08-26T09:15:16.375Z,7.53
2022-08-26T09:17:53.725Z,7.10
2022-08-26T09:20:47.174Z,7.00
2022-08-26T09:23:15.139Z,7.20
2022-08-26T09:25:55.435Z,7.13
2022-08-26T09:28:25.139Z,6.33
2022-08-26T09:31:11.510Z,7.13
2022-08-26T09:33:40.305Z,7.40
2022-08-26T09:36:24.742Z,8.37
2022-08-26T09:38:53.723Z,8.00
2022-08-26T09:41:28.007Z,7.80
2022-08-26T09:44:15.645Z,8.07
2022-08-26T09:46:59.765Z,6.67
2022-08-26T09:49:36.477Z,7.90
2022-08-26T09:52:18.130Z,7.10
2022-08-26T09:54:46.117Z,7.30
2022-08-26T09:57:28.932Z,7.40
2022-08-26T09:59:56.443Z,6.60
2022-08-26T10:02:32.968Z,6.37
2022-08-26T10:05:09.193Z,6.90
2022-08-26T10:07:49.979Z,7.57
2022-08-26T10:10:33.577Z,6.77
2022-08-26T10:13:23.778Z,7.83
2022-08-26T10:16:00.493Z,6.40
2022-08-26T10:18:34.689Z,6.73
2022-08-26T10:21:18.013Z,6.67
2022-08-26T10:23:51.385Z,5.77
2022-08-26T10:26:25.684Z,4.87
2022-08-26T10:29:13.981Z,5.27
2022-08-26T10:31:51.993Z,4.30
2022-08-26T10:34:21.225Z,5.80
2022-08-26T10:37:14.339Z,5.50
2022-08-26T10:39:57.326Z,5.03
2022-08-26T10:42:35.143Z,5.10
2022-08-26T10:45:29.582Z,6.20
2022-08-26T10:48:02.214Z,6.43
2022-08-26T10:50:37.704Z,5.40
2022-08-26T10:53:13.756Z,5.20
2022-08-26T10:56:04.502Z,5.73
2022-08-26T10:58:55.856Z,5.00
2022-08-26T11:01:42.850Z,5.40
2022-08-26T11:04:38.514Z,5.53
2022-08-26T11:07:37.283Z,5.13
2022-08-26T11:10:21.813Z,6.13
2022-08-26T11:12:50.615Z,5.43
2022-08-26T11:15:24.649Z,5.07
2022-08-26T11:18:00.287Z,5.70
2022-08-26T11:20:45.906Z,4.50
2022-08-26T11:23:20.349Z,5.10
2022-08-26T11:26:35.383Z,6.80
2022-08-26T11:29:04.468Z,5.00
2022-08-26T11:31:39.555Z,4.23
2022-08-26T11:34:08.723Z,5.20
2022-08-26T11:36:42.991Z,5.20
2022-08-26T11:39:19.315Z,3.97
2022-08-26T11:41:52.709Z,5.30
2022-08-26T11:44:26.387Z,4.50
2022-08-26T11:46:59.759Z,5.57
2022-08-26T11:49:31.802Z,4.50
2022-08-26T11:52:16.057Z,5.13
2022-08-26T11:55:06.567Z,4.90
2022-08-26T11:57:36.301Z,5.57
2022-08-26T12:00:07.416Z,4.07
2022-08-26T12:02:40.427Z,4.70
2022-08-26T12:05:08.293Z,6.10
2022-08-26T12:07:36.338Z,5.33
2022-08-26T12:10:06.401Z,5.17
2022-08-26T12:12:42.468Z,4.57
2022-08-26T12:15:16.905Z,4.60
2022-08-26T12:17:49.417Z,4.20
2022-08-26T12:20:48.098Z,5.27
2022-08-26T12:23:41.151Z,4.30
2022-08-26T12:26:41.435Z,6.00
2022-08-26T12:29:27.638Z,5.03
2022-08-26T12:32:15.308Z,5.07
2022-08-26T12:34:44.703Z,5.80
2022-08-26T12:37:14.376Z,5.53
2022-08-26T12:39:44.613Z,5.80
2022-08-26T12:42:17.737Z,5.30
2022-08-26T12:45:06.473Z,6.37
2022-08-26T12:47:44.375Z,4.87
2022-08-26T12:50:23.054Z,4.90
2022-08-26T12:53:04.216Z,5.63
2022-08-26T12:55:38.384Z,5.90
2022-08-26T12:58:37.521Z,5.37
2022-08-26T13:01:04.472Z,5.80
2022-08-26T13:03:34.603Z,5.60
2022-08-26T13:06:23.457Z,6.20
2022-08-26T13:08:58.036Z,6.00
2022-08-26T13:11:40.492Z,6.20
2022-08-26T13:14:18.363Z,5.30
2022-08-26T13:16:53.620Z,7.43
2022-08-26T13:19:25.420Z,6.97
2022-08-26T13:21:59.553Z,5.77
2022-08-26T13:24:33.065Z,6.67
2022-08-26T13:27:00.884Z,6.30
2022-08-26T13:29:28.218Z,5.90
2022-08-26T13:31:56.154Z,9.20
2022-08-26T13:34:25.244Z,6.30
2022-08-26T13:36:55.185Z,5.60
2022-08-26T13:39:23.576Z,7.60
2022-08-26T13:41:51.474Z,5.40
2022-08-26T13:44:19.565Z,6.67
2022-08-26T13:46:46.716Z,8.77
2022-08-26T13:49:13.956Z,6.43
2022-08-26T13:51:41.847Z,6.97
2022-08-26T13:54:08.839Z,6.77
2022-08-26T13:56:37.412Z,6.50
2022-08-26T13:59:06.662Z,6.30
2022-08-26T14:01:35.062Z,6.60
2022-08-26T14:04:03.098Z,7.13
2022-08-26T14:06:30.699Z,7.57
2022-08-26T14:08:58.566Z,6.80
2022-08-26T14:11:26.016Z,8.23
2022-08-26T14:13:53.364Z,6.80
2022-08-26T14:16:33.091Z,7.20
2022-08-26T14:19:01.950Z,7.30
2022-08-26T14:21:31.535Z,7.37
2022-08-26T14:24:00.903Z,6.30
2022-08-26T14:26:29.877Z,7.30
2022-08-26T14:28:58.946Z,6.27
2022-08-26T14:31:28.991Z,6.50
2022-08-26T14:33:58.742Z,7.23
2022-08-26T14:36:28.825Z,6.30
2022-08-26T14:38:58.067Z,7.60
2022-08-26T14:41:26.334Z,7.00
2022-08-26T14:44:00.009Z,7.90
2022-08-26T14:46:30.169Z,7.63
2022-08-26T14:49:01.599Z,7.33
2022-08-26T14:51:29.462Z,6.40
2022-08-26T14:54:11.930Z,6.13
2022-08-26T14:56:47.319Z,7.10
2022-08-26T14:59:17.709Z,7.73
2022-08-26T15:01:45.629Z,7.00
2022-08-26T15:04:13.806Z,7.17
2022-08-26T15:06:41.804Z,7.17
2022-08-26T15:09:10.152Z,7.10
2022-08-26T15:11:37.904Z,7.17
2022-08-26T15:14:05.278Z,7.73
2022-08-26T15:16:33.367Z,7.60
2022-08-26T15:19:04.216Z,5.67
2022-08-26T15:21:33.428Z,6.80
2022-08-26T15:24:01.446Z,6.33
2022-08-26T15:26:30.040Z,6.70
2022-08-26T15:28:59.903Z,7.60
2022-08-26T15:31:31.828Z,6.20
2022-08-26T15:34:02.517Z,7.67
2022-08-26T15:36:31.964Z,7.80
2022-08-26T15:39:00.893Z,5.97
2022-08-26T15:41:29.416Z,6.60
2022-08-26T15:43:57.684Z,6.37
2022-08-26T15:46:25.434Z,7.30
2022-08-26T15:48:53.238Z,6.37
2022-08-26T15:51:29.432Z,7.03
2022-08-26T15:53:57.455Z,6.40
2022-08-26T15:56:26.060Z,8.03
2022-08-26T15:58:55.004Z,6.17
2022-08-26T16:01:27.850Z,6.53
2022-08-26T16:03:56.361Z,7.20
2022-08-26T16:06:27.454Z,6.77
2022-08-26T16:08:56.069Z,6.97
2022-08-26T16:11:24.183Z,7.60
2022-08-26T16:13:51.668Z,7.77
2022-08-26T16:16:19.590Z,6.60
2022-08-26T16:18:47.172Z,7.20
2022-08-26T16:21:22.533Z,6.80
2022-08-26T16:23:50.115Z,7.13
2022-08-26T16:26:24.192Z,7.63
2022-08-26T16:28:52.283Z,7.63
2022-08-26T16:31:19.794Z,8.17
2022-08-26T16:33:47.342Z,7.13
2022-08-26T16:36:16.291Z,5.73
2022-08-26T16:38:53.417Z,6.03
2022-08-26T16:41:21.200Z,5.67
2022-08-26T16:43:48.768Z,5.40
2022-08-26T16:46:16.319Z,4.47
2022-08-26T16:48:45.190Z,6.23
2022-08-26T16:51:17.570Z,6.50
2022-08-26T16:53:45.954Z,6.77
2022-08-26T16:56:14.985Z,6.97
2022-08-26T16:58:42.790Z,5.80
2022-08-26T17:01:10.512Z,7.30
2022-08-26T17:03:37.746Z,6.77
2022-08-26T17:06:05.157Z,5.57
2022-08-26T17:08:32.243Z,5.80
2022-08-26T17:11:00.742Z,5.00
2022-08-26T17:13:35.197Z,4.57
2022-08-26T17:16:07.372Z,5.23
2022-08-26T17:18:36.806Z,5.63
2022-08-26T17:21:08.514Z,6.37
2022-08-26T17:23:38.708Z,5.87
2022-08-26T17:26:05.975Z,6.00
2022-08-26T17:28:33.746Z,4.67
2022-08-26T17:31:02.027Z,5.50
2022-08-26T17:33:29.656Z,5.00
2022-08-26T17:35:57.147Z,5.70
2022-08-26T17:38:24.992Z,5.67
2022-08-26T17:40:52.844Z,5.93
2022-08-26T17:43:20.262Z,5.20
2022-08-26T17:45:47.774Z,6.80
2022-08-26T17:48:15.346Z,6.60
2022-08-26T17:50:43.780Z,6.87
2022-08-26T17:53:19.145Z,6.80
2022-08-26T17:55:47.746Z,7.13
2022-08-26T17:58:17.154Z,6.30
2022-08-26T18:00:50.482Z,8.03
2022-08-26T18:03:19.107Z,6.73
2022-08-26T18:05:52.020Z,8.00
2022-08-26T18:08:20.254Z,6.93
2022-08-26T18:10:48.190Z,8.77
2022-08-26T18:13:15.690Z,7.10
2022-08-26T18:15:45.187Z,6.73
2022-08-26T18:18:14.310Z,7.27
2022-08-26T18:20:43.153Z,6.80
2022-08-26T18:23:11.399Z,6.80
2022-08-26T18:25:41.093Z,7.20
2022-08-26T18:28:08.719Z,10.80
2022-08-26T18:30:39.014Z,9.60
2022-08-26T18:33:06.478Z,9.23
2022-08-26T18:35:39.467Z,8.93
2022-08-26T18:38:11.108Z,8.43
2022-08-26T18:40:40.884Z,9.17
2022-08-26T18:43:08.663Z,10.20
2022-08-26T18:45:36.137Z,9.77
2022-08-26T18:48:04.411Z,8.40
2022-08-26T18:50:31.828Z,7.90
2022-08-26T18:52:59.191Z,9.10
2022-08-26T18:55:26.835Z,9.60
2022-08-26T18:57:54.247Z,9.47
2022-08-26T19:00:21.837Z,8.47
2022-08-26T19:02:52.205Z,9.83
2022-08-26T19:05:23.364Z,9.90
2022-08-26T19:07:51.789Z,10.70
2022-08-26T19:10:19.132Z,10.43
2022-08-26T19:12:46.545Z,9.97
2022-08-26T19:15:19.722Z,10.17
2022-08-26T19:17:47.821Z,10.50
2022-08-26T19:20:15.211Z,10.77
2022-08-26T19:22:42.561Z,11.47
2022-08-26T19:25:10.225Z,9.50
2022-08-26T19:27:37.637Z,9.60
2022-08-26T19:30:06.898Z,8.73
2022-08-26T19:32:34.239Z,11.07
2022-08-26T19:35:01.672Z,9.80
2022-08-26T19:37:29.120Z,9.37
2022-08-26T19:39:56.651Z,9.80
2022-08-26T19:42:24.074Z,10.00
2022-08-26T19:45:11.058Z,8.30
2022-08-26T19:47:53.497Z,9.17
2022-08-26T19:50:21.988Z,8.50
2022-08-26T19:52:49.705Z,8.17
2022-08-26T19:55:18.627Z,8.40
2022-08-26T19:57:46.222Z,9.30
2022-08-26T20:00:16.034Z,9.63
2022-08-26T20:02:44.242Z,8.40
2022-08-26T20:05:13.296Z,10.00
2022-08-26T20:07:41.886Z,9.00
2022-08-26T20:10:12.908Z,8.40
2022-08-26T20:12:41.661Z,7.90
2022-08-26T20:15:10.727Z,8.30
2022-08-26T20:17:38.478Z,8.63
2022-08-26T20:20:33.401Z,9.60
2022-08-26T20:23:03.563Z,10.10
2022-08-26T20:25:32.570Z,9.17
2022-08-26T20:28:00.556Z,9.50
2022-08-26T20:30:28.093Z,9.10
2022-08-26T20:32:55.653Z,9.10
2022-08-26T20:35:23.877Z,9.13
2022-08-26T20:37:51.304Z,8.40
2022-08-26T20:40:18.742Z,9.07
2022-08-26T20:42:46.157Z,8.57
2022-08-26T20:45:13.541Z,8.47
2022-08-26T20:47:41.711Z,9.07
2022-08-26T20:50:09.800Z,8.63
2022-08-26T20:52:36.886Z,6.87
2022-08-26T20:55:04.853Z,8.93
2022-08-26T20:57:32.263Z,9.10
2022-08-26T20:59:59.333Z,10.67
2022-08-26T21:02:28.129Z,9.97
2022-08-26T21:04:55.588Z,10.37
2022-08-26T21:07:22.990Z,9.80
2022-08-26T21:09:50.371Z,10.37
2022-08-26T21:12:19.117Z,9.43
2022-08-26T21:14:49.493Z,9.03
2022-08-26T21:17:17.188Z,9.50
2022-08-26T21:19:44.620Z,9.07
2022-08-26T21:22:12.296Z,10.43
2022-08-26T21:24:39.709Z,10.50
2022-08-26T21:27:07.123Z,9.80
2022-08-26T21:29:35.662Z,11.20
2022-08-26T21:32:03.509Z,9.70
2022-08-26T21:34:30.944Z,10.40
2022-08-26T21:36:58.617Z,9.93
2022-08-26T21:39:26.189Z,10.40
2022-08-26T21:41:53.779Z,12.00
2022-08-26T21:44:22.022Z,10.50
2022-08-26T21:46:49.813Z,10.97
2022-08-26T21:49:17.686Z,10.10
2022-08-26T21:51:47.681Z,10.90
2022-08-26T21:54:15.330Z,10.13
2022-08-26T21:56:46.531Z,12.83
2022-08-26T21:59:16.280Z,13.10
2022-08-26T22:01:43.943Z,12.67
2022-08-26T22:04:11.037Z,14.30
2022-08-26T22:06:57.660Z,12.60
2022-08-26T22:09:28.599Z,13.00
2022-08-26T22:11:56.833Z,14.33
2022-08-26T22:14:30.746Z,14.00
2022-08-26T22:16:59.455Z,14.37
2022-08-26T22:19:26.647Z,16.03
2022-08-26T22:21:56.577Z,17.40
2022-08-26T22:24:26.795Z,14.57
2022-08-26T22:26:55.117Z,14.60
2022-08-26T22:29:22.571Z,15.83
2022-08-26T22:31:50.023Z,16.00
2022-08-26T22:34:19.501Z,14.87
2022-08-26T22:36:48.932Z,16.40
2022-08-26T22:39:20.388Z,16.23
2022-08-26T22:41:48.810Z,16.50
2022-08-26T22:44:17.592Z,15.80
2022-08-26T22:46:45.449Z,15.97
2022-08-26T22:49:16.363Z,15.40
2022-08-26T22:51:44.785Z,15.40
2022-08-26T22:54:12.601Z,14.67
2022-08-26T22:56:40.168Z,14.30
2022-08-26T22:59:08.520Z,13.33
2022-08-26T23:01:38.123Z,17.30
2022-08-26T23:04:07.357Z,16.50
2022-08-26T23:06:39.505Z,15.30
2022-08-26T23:09:08.167Z,17.07
2022-08-26T23:11:35.729Z,14.10
2022-08-26T23:14:06.136Z,15.20
2022-08-26T23:16:39.734Z,14.03
2022-08-26T23:19:08.340Z,14.90
2022-08-26T23:21:35.790Z,15.20
2022-08-26T23:24:03.674Z,12.90
2022-08-26T23:26:31.801Z,14.30
2022-08-26T23:29:00.075Z,14.87
2022-08-26T23:31:27.528Z,17.63
2022-08-26T23:34:13.308Z,16.90
2022-08-26T23:36:42.377Z,16.43
2022-08-26T23:39:11.770Z,17.00
2022-08-26T23:41:39.154Z,18.30
2022-08-26T23:44:06.142Z,16.23
2022-08-26T23:46:34.543Z,20.37
2022-08-26T23:49:02.040Z,18.87
2022-08-26T23:51:48.280Z,18.13
2022-08-26T23:54:15.339Z,17.00
2022-08-26T23:56:42.827Z,17.40
2022-08-26T23:59:10.208Z,13.47
